Celebrity Mercury — 9HJG9 — position and weather

sailwx.info

Track history (hours):
 
Tides and Currents Weather Stations Pressure Air Temp Water Temp Dewpoint Dewpoint Depression Visibility Wind Speed Wind Dir Waves Ship Positions

Celebrity Mercury

Last reported at 2019-Feb-15 21:22 UTC. Time now 2019-Feb-16 04:35 UTC.
Position N 43°21' E 005°20'.

Length 264 m; draft 8.5 m.

Type: Ship. MMSI: 249053000.

Date/timePositionNaut miles runAvg speedWind from/ knotsBaromVisibWave heightAir tempDewpointWater temp
2019-Feb-15 21:22N 43°21' E 005°20'0 0.0
2019-Feb-14 21:08N 43°21' E 005°20'1 0.1
2019-Feb-14 12:04N 43°21' E 005°20'1 1.3
2019-Feb-14 11:31N 43°21' E 005°19'0 7.0
2019-Feb-14 11:29N 43°21' E 005°18'4 6.5
2019-Feb-14 10:57N 43°19' E 005°15'3 4.9
2019-Feb-14 10:19N 43°17' E 005°12'2 4.8
2019-Feb-14 10:00N 43°16' E 005°11'3 4.9
2019-Feb-14 09:29N 43°13' E 005°10'4813.6
2019-Feb-14 06:00N 42°30' E 004°42'15016.6 110 / 111035.010.8 12.0 15.0
2019-Feb-13 21:00N 40°24' E 002°54'5819.3 150 / 21034.010.8 13.0 16.0
2019-Feb-13 18:00N 39°36' E 002°12'1218.1 100 / 81033.027.0 13.0 17.0
2019-Feb-13 17:21N 39°28' E 002°22'618.0
2019-Feb-13 17:00N 39°25' E 002°30'917.3
2019-Feb-13 16:30N 39°31' E 002°38'2 3.6
2019-Feb-13 15:59N 39°33' E 002°38'0 0.0
2019-Feb-13 15:29N 39°33' E 002°38'0 0.0
2019-Feb-13 14:58N 39°33' E 002°38'0 0.0
2019-Feb-13 14:30N 39°33' E 002°38'0 0.0
2019-Feb-13 14:00N 39°33' E 002°38'0 0.0
2019-Feb-13 13:30N 39°33' E 002°38'0 0.0
2019-Feb-13 13:00N 39°33' E 002°38'0 0.0
2019-Feb-13 12:30N 39°33' E 002°38'0 0.0
2019-Feb-13 12:00N 39°33' E 002°38'0 0.0
2019-Feb-13 11:30N 39°33' E 002°38'0 0.0
2019-Feb-13 11:00N 39°33' E 002°38'0 0.0
2019-Feb-13 10:29N 39°33' E 002°38'0 0.0
2019-Feb-13 09:59N 39°33' E 002°38'0 0.0
2019-Feb-13 09:29N 39°33' E 002°38'0 0.0
2019-Feb-13 08:59N 39°33' E 002°38'0 0.0
2019-Feb-13 08:29N 39°33' E 002°38'0 0.0
2019-Feb-13 07:58N 39°33' E 002°38'0 0.0
2019-Feb-13 07:28N 39°33' E 002°38'0 0.0
2019-Feb-13 06:58N 39°33' E 002°38'0 0.0
2019-Feb-13 06:30N 39°33' E 002°38'0 0.0
2019-Feb-13 06:00N 39°33' E 002°38'0 0.0
2019-Feb-13 05:30N 39°33' E 002°38'0 0.0
2019-Feb-13 05:00N 39°33' E 002°38'0 0.0
2019-Feb-13 04:30N 39°33' E 002°38'0 0.0
2019-Feb-13 04:00N 39°33' E 002°38'0 0.0
2019-Feb-13 03:30N 39°33' E 002°38'0 0.0
2019-Feb-13 03:00N 39°33' E 002°38'0 0.1
2019-Feb-13 02:30N 39°33' E 002°38'1 2.8
2019-Feb-13 02:00N 39°32' E 002°38'611.9
2019-Feb-13 01:30N 39°27' E 002°34'611.9
2019-Feb-13 01:00N 39°26' E 002°26'6015.0
2019-Feb-12 21:00N 40°24' E 002°06'4217.2 250 / 121031.0 5.4 14.0 16.0
2019-Feb-12 18:33N 41°06' E 002°11'116.3
2019-Feb-12 18:29N 41°07' E 002°10'816.2
2019-Feb-12 18:01N 41°15' E 002°10'4248.4
2019-Feb-12 18:00N 41°12' E 002°06'918.5 250 / 161031.027.0 14.0 17.0
2019-Feb-12 17:30N 41°20' E 002°10'1 2.6
2019-Feb-12 16:58N 41°22' E 002°11'0 0.0
2019-Feb-12 16:28N 41°22' E 002°11'0 0.0
2019-Feb-12 15:58N 41°22' E 002°11'0 0.0
2019-Feb-12 15:28N 41°22' E 002°11'0 0.0
2019-Feb-12 14:58N 41°22' E 002°11'0 0.0
2019-Feb-12 14:28N 41°22' E 002°11'0 0.0
2019-Feb-12 13:58N 41°22' E 002°11'0 0.0
2019-Feb-12 13:28N 41°22' E 002°11'0 0.0
2019-Feb-12 12:58N 41°22' E 002°11'0 0.0
2019-Feb-12 12:30N 41°22' E 002°11'0 0.0
2019-Feb-12 12:00N 41°22' E 002°11'0 0.0
2019-Feb-12 11:30N 41°22' E 002°11'0 0.0
2019-Feb-12 10:57N 41°22' E 002°11'0 0.0
2019-Feb-12 10:30N 41°22' E 002°11'0 0.0
2019-Feb-12 09:59N 41°22' E 002°11'0 0.0
2019-Feb-12 09:29N 41°22' E 002°11'0 0.0
2019-Feb-12 08:56N 41°22' E 002°11'0 0.0
2019-Feb-12 08:29N 41°22' E 002°11'0 0.0
2019-Feb-12 07:59N 41°22' E 002°11'0 0.0
2019-Feb-12 07:28N 41°22' E 002°11'0 0.0
2019-Feb-12 07:00N 41°22' E 002°11'0 0.0
2019-Feb-12 06:26N 41°22' E 002°11'0 0.0
2019-Feb-12 05:59N 41°22' E 002°11'0 0.6
2019-Feb-12 05:30N 41°21' E 002°11'3 6.6
2019-Feb-12 05:01N 41°18' E 002°11'4 8.8
2019-Feb-12 04:30N 41°14' E 002°09'612.8
2019-Feb-12 04:00N 41°09' E 002°03'613.0
2019-Feb-12 03:30N 41°04' E 001°58'713.1
2019-Feb-12 03:00N 40°59' E 001°52'6441.7
2019-Feb-12 03:00N 40°54' E 001°48'1 2.6 340 / 201030.027.0 13.0 16.0
2019-Feb-12 02:30N 40°54' E 001°46'7613.8
2019-Feb-11 21:00N 40°00' E 000°36'4115.6 300 / 201028.010.8 14.0 17.0
2019-Feb-11 18:22N 39°34' W 000°05'616.8
2019-Feb-11 18:00N 39°30' W 000°11'8584.4
2019-Feb-11 18:00N 39°24' W 000°18'2 3.3 150 / 141028.027.0 14.0 18.0
2019-Feb-11 17:31N 39°26' W 000°18'2 4.4
2019-Feb-11 17:00N 39°27' W 000°19'0 0.0
2019-Feb-11 16:28N 39°27' W 000°19'0 0.0
2019-Feb-11 15:58N 39°27' W 000°19'0 0.0
2019-Feb-11 15:30N 39°27' W 000°19'0 0.0
2019-Feb-11 15:00N 39°27' W 000°19'0 0.0
2019-Feb-11 14:28N 39°27' W 000°19'0 0.0
2019-Feb-11 13:57N 39°27' W 000°19'0 0.0
2019-Feb-11 13:30N 39°27' W 000°19'0 0.0
2019-Feb-11 12:59N 39°27' W 000°19'0 0.0
2019-Feb-11 12:29N 39°27' W 000°19'0 0.0
2019-Feb-11 11:59N 39°27' W 000°19'0 0.0
2019-Feb-11 11:29N 39°27' W 000°19'0 0.0
2019-Feb-11 10:59N 39°27' W 000°19'0 0.0
2019-Feb-11 10:26N 39°27' W 000°19'0 0.0
2019-Feb-11 09:59N 39°27' W 000°19'0 0.0
2019-Feb-11 09:29N 39°27' W 000°19'0 0.0
2019-Feb-11 08:59N 39°27' W 000°19'0 0.0
2019-Feb-11 08:29N 39°27' W 000°19'0 0.0
2019-Feb-11 07:59N 39°27' W 000°19'0 0.0
2019-Feb-11 07:29N 39°27' W 000°19'0 0.0
2019-Feb-11 07:00N 39°27' W 000°19'0 0.1
2019-Feb-11 06:30N 39°27' W 000°19'3 5.4
2019-Feb-11 06:00N 39°25' W 000°17'9710.8
2019-Feb-10 21:00N 37°48' W 000°12'3812.8 280 / 271022.0 5.4 16.0 17.0
2019-Feb-10 18:00N 37°18' W 000°42'3712.5 260 / 141022.027.0 18.0 18.0
2019-Feb-10 15:00N 36°54' W 001°18'76 8.5 240 / 251022.027.0 16.0 18.0
2019-Feb-10 06:00N 36°18' W 002°42'25 8.3 240 / 181023.010.8 16.0 17.0
2019-Feb-10 03:00N 36°24' W 003°12'48 2.0 250 / 151023.027.0 15.0 17.0
2019-Feb-09 03:00N 36°24' W 004°12'19 6.2 300 / 61022.510.8 15.0 18.0
2019-Feb-09 00:00N 36°06' W 004°06'25 8.3 280 / 71023.010.8 16.0 19.0
2019-Feb-08 21:00N 36°00' W 004°36'69 3.8 260 / 31023.0 5.4 15.0 18.0
2019-Feb-08 03:00N 35°48' W 006°00'4113.6 330 / 61023.027.0 15.0 19.0
2019-Feb-08 00:00N 36°00' W 006°48'25 8.3 310 / 101025.010.8 16.0 17.0
2019-Feb-07 21:00N 36°06' W 007°18'25 8.3 310 / 71024.0 5.4 15.0 18.0
2019-Feb-07 18:00N 36°12' W 007°48'6311.7 220 / 11024.027.0 18.0 19.0
2019-Feb-07 12:37N 36°31' W 009°02'6710.8
2019-Feb-07 06:23N 37°34' W 009°31'512.4
2019-Feb-07 06:00N 37°39' W 009°30'3188.8
2019-Feb-07 06:00N 37°36' W 009°30'918.7 360 / 141027.010.8 14.0 17.0
2019-Feb-07 05:30N 37°45' W 009°30'612.7
2019-Feb-07 05:00N 37°51' W 009°29'612.8
2019-Feb-07 04:30N 37°58' W 009°28'713.1
2019-Feb-07 04:00N 38°04' W 009°26'612.8
2019-Feb-07 03:30N 38°10' W 009°27'612.5
2019-Feb-07 03:01N 38°17' W 009°27'5299.6
2019-Feb-07 03:00N 38°12' W 009°24'1122.6 360 / 151026.527.0 12.5 16.0
2019-Feb-07 02:30N 38°23' W 009°26'612.7
2019-Feb-07 02:00N 38°29' W 009°26'611.8
2019-Feb-07 01:30N 38°35' W 009°24'713.2
2019-Feb-07 01:01N 38°40' W 009°19'611.2
2019-Feb-07 00:30N 38°41' W 009°11'3 6.8
2019-Feb-07 00:01N 38°43' W 009°08'0 0.0
2019-Feb-06 23:30N 38°43' W 009°08'0 0.0
2019-Feb-06 23:00N 38°43' W 009°08'0 0.0
2019-Feb-06 22:31N 38°43' W 009°08'0 0.0
2019-Feb-06 22:01N 38°43' W 009°08'0 0.0
2019-Feb-06 21:28N 38°43' W 009°08'0 0.0
2019-Feb-06 21:01N 38°43' W 009°08'0 0.0
2019-Feb-06 20:29N 38°43' W 009°08'0 0.0
2019-Feb-06 19:59N 38°43' W 009°08'0 0.0
2019-Feb-06 19:28N 38°43' W 009°08'0 0.0
2019-Feb-06 18:58N 38°43' W 009°08'0 0.0
2019-Feb-06 18:30N 38°43' W 009°08'0 0.0
2019-Feb-06 18:00N 38°43' W 009°08'0 0.0
2019-Feb-06 17:29N 38°43' W 009°08'0 0.0
2019-Feb-06 16:59N 38°43' W 009°08'0 0.0
2019-Feb-06 16:28N 38°43' W 009°08'0 0.0
2019-Feb-06 16:00N 38°43' W 009°08'0 0.0
2019-Feb-06 15:29N 38°43' W 009°08'0 0.0
2019-Feb-06 15:01N 38°43' W 009°08'0 0.0
2019-Feb-06 14:29N 38°43' W 009°08'0 0.0
2019-Feb-06 14:00N 38°43' W 009°08'0 0.0
2019-Feb-06 13:28N 38°43' W 009°08'0 0.0
2019-Feb-06 12:58N 38°43' W 009°08'0 0.0
2019-Feb-06 12:30N 38°43' W 009°08'0 0.0
2019-Feb-06 12:00N 38°43' W 009°08'0 0.0
2019-Feb-06 11:29N 38°43' W 009°08'0 0.0
2019-Feb-06 10:59N 38°43' W 009°08'0 0.0
2019-Feb-06 10:30N 38°43' W 009°08'0 0.0
2019-Feb-06 10:01N 38°43' W 009°08'0 0.0
2019-Feb-06 09:28N 38°43' W 009°08'0 0.0
2019-Feb-06 09:00N 38°43' W 009°08'0 0.5
2019-Feb-06 08:30N 38°42' W 009°08'4 9.0
2019-Feb-06 08:00N 38°41' W 009°13'612.6
2019-Feb-06 07:30N 38°39' W 009°21'816.6
2019-Feb-06 07:00N 38°31' W 009°24'918.0
2019-Feb-06 06:30N 38°22' W 009°24'918.1
2019-Feb-06 06:00N 38°13' W 009°23'918.3
2019-Feb-06 05:30N 38°03' W 009°23'918.3
2019-Feb-06 05:00N 37°54' W 009°23'918.4
2019-Feb-06 04:30N 37°45' W 009°23'918.5
2019-Feb-06 04:00N 37°36' W 009°22'918.2
2019-Feb-06 03:30N 37°27' W 009°22'918.1
2019-Feb-06 03:00N 37°18' W 009°22'3201.5
2019-Feb-06 03:00N 37°18' W 009°18'1020.2 360 / 71026.527.0 15.0 17.0
2019-Feb-06 02:30N 37°09' W 009°22'917.8
2019-Feb-06 02:00N 36°60' W 009°21'917.5
2019-Feb-06 01:30N 36°52' W 009°17'917.9
2019-Feb-06 00:59N 36°45' W 009°09'918.5
2019-Feb-06 00:29N 36°42' W 008°59'917.7
2019-Feb-06 00:00N 36°42' W 008°48'0106.7
2019-Feb-06 00:00N 36°42' W 008°48'918.3 320 / 151025.010.8 17.0 15.0
2019-Feb-05 23:29N 36°41' W 008°36'918.1
2019-Feb-05 22:59N 36°41' W 008°25'917.7
2019-Feb-05 22:28N 36°40' W 008°14'1018.0
2019-Feb-05 21:54N 36°39' W 008°01'  
Track history (hours):
 
Tides and Currents Weather Stations Pressure Air Temp Water Temp Dewpoint Dewpoint Depression Visibility Wind Speed Wind Dir Waves Ship Positions

Celebrity Mercury

Last reported at 2019-Feb-15 21:22 UTC. Time now 2019-Feb-16 04:35 UTC.
Position N 43°21' E 005°20'.

Length 264 m; draft 8.5 m.

Type: Ship. MMSI: 249053000.

Date/timePositionNaut miles runAvg speedWind from/ knotsBaromVisibWave heightAir tempDewpointWater temp
2019-Feb-15 21:22N 43°21' E 005°20'0 0.0
2019-Feb-14 21:08N 43°21' E 005°20'1 0.1
2019-Feb-14 12:04N 43°21' E 005°20'1 1.3
2019-Feb-14 11:31N 43°21' E 005°19'0 7.0
2019-Feb-14 11:29N 43°21' E 005°18'4 6.5
2019-Feb-14 10:57N 43°19' E 005°15'3 4.9
2019-Feb-14 10:19N 43°17' E 005°12'2 4.8
2019-Feb-14 10:00N 43°16' E 005°11'3 4.9
2019-Feb-14 09:29N 43°13' E 005°10'4813.6
2019-Feb-14 06:00N 42°30' E 004°42'15016.6 110 / 111035.010.8 12.0 15.0
2019-Feb-13 21:00N 40°24' E 002°54'5819.3 150 / 21034.010.8 13.0 16.0
2019-Feb-13 18:00N 39°36' E 002°12'1218.1 100 / 81033.027.0 13.0 17.0
2019-Feb-13 17:21N 39°28' E 002°22'618.0
2019-Feb-13 17:00N 39°25' E 002°30'917.3
2019-Feb-13 16:30N 39°31' E 002°38'2 3.6
2019-Feb-13 15:59N 39°33' E 002°38'0 0.0
2019-Feb-13 15:29N 39°33' E 002°38'0 0.0
2019-Feb-13 14:58N 39°33' E 002°38'0 0.0
2019-Feb-13 14:30N 39°33' E 002°38'0 0.0
2019-Feb-13 14:00N 39°33' E 002°38'0 0.0
2019-Feb-13 13:30N 39°33' E 002°38'0 0.0
2019-Feb-13 13:00N 39°33' E 002°38'0 0.0
2019-Feb-13 12:30N 39°33' E 002°38'0 0.0
2019-Feb-13 12:00N 39°33' E 002°38'0 0.0
2019-Feb-13 11:30N 39°33' E 002°38'0 0.0
2019-Feb-13 11:00N 39°33' E 002°38'0 0.0
2019-Feb-13 10:29N 39°33' E 002°38'0 0.0
2019-Feb-13 09:59N 39°33' E 002°38'0 0.0
2019-Feb-13 09:29N 39°33' E 002°38'0 0.0
2019-Feb-13 08:59N 39°33' E 002°38'0 0.0
2019-Feb-13 08:29N 39°33' E 002°38'0 0.0
2019-Feb-13 07:58N 39°33' E 002°38'0 0.0
2019-Feb-13 07:28N 39°33' E 002°38'0 0.0
2019-Feb-13 06:58N 39°33' E 002°38'0 0.0
2019-Feb-13 06:30N 39°33' E 002°38'0 0.0
2019-Feb-13 06:00N 39°33' E 002°38'0 0.0
2019-Feb-13 05:30N 39°33' E 002°38'0 0.0
2019-Feb-13 05:00N 39°33' E 002°38'0 0.0
2019-Feb-13 04:30N 39°33' E 002°38'0 0.0
2019-Feb-13 04:00N 39°33' E 002°38'0 0.0
2019-Feb-13 03:30N 39°33' E 002°38'0 0.0
2019-Feb-13 03:00N 39°33' E 002°38'0 0.1
2019-Feb-13 02:30N 39°33' E 002°38'1 2.8
2019-Feb-13 02:00N 39°32' E 002°38'611.9
2019-Feb-13 01:30N 39°27' E 002°34'611.9
2019-Feb-13 01:00N 39°26' E 002°26'6015.0
2019-Feb-12 21:00N 40°24' E 002°06'4217.2 250 / 121031.0 5.4 14.0 16.0
2019-Feb-12 18:33N 41°06' E 002°11'116.3
2019-Feb-12 18:29N 41°07' E 002°10'816.2
2019-Feb-12 18:01N 41°15' E 002°10'4248.4
2019-Feb-12 18:00N 41°12' E 002°06'918.5 250 / 161031.027.0 14.0 17.0
2019-Feb-12 17:30N 41°20' E 002°10'1 2.6
2019-Feb-12 16:58N 41°22' E 002°11'0 0.0
2019-Feb-12 16:28N 41°22' E 002°11'0 0.0
2019-Feb-12 15:58N 41°22' E 002°11'0 0.0
2019-Feb-12 15:28N 41°22' E 002°11'0 0.0
2019-Feb-12 14:58N 41°22' E 002°11'0 0.0
2019-Feb-12 14:28N 41°22' E 002°11'0 0.0
2019-Feb-12 13:58N 41°22' E 002°11'0 0.0
2019-Feb-12 13:28N 41°22' E 002°11'0 0.0
2019-Feb-12 12:58N 41°22' E 002°11'0 0.0
2019-Feb-12 12:30N 41°22' E 002°11'0 0.0
2019-Feb-12 12:00N 41°22' E 002°11'0 0.0
2019-Feb-12 11:30N 41°22' E 002°11'0 0.0
2019-Feb-12 10:57N 41°22' E 002°11'0 0.0
2019-Feb-12 10:30N 41°22' E 002°11'0 0.0
2019-Feb-12 09:59N 41°22' E 002°11'0 0.0
2019-Feb-12 09:29N 41°22' E 002°11'0 0.0
2019-Feb-12 08:56N 41°22' E 002°11'0 0.0
2019-Feb-12 08:29N 41°22' E 002°11'0 0.0
2019-Feb-12 07:59N 41°22' E 002°11'0 0.0
2019-Feb-12 07:28N 41°22' E 002°11'0 0.0
2019-Feb-12 07:00N 41°22' E 002°11'0 0.0
2019-Feb-12 06:26N 41°22' E 002°11'0 0.0
2019-Feb-12 05:59N 41°22' E 002°11'0 0.6
2019-Feb-12 05:30N 41°21' E 002°11'3 6.6
2019-Feb-12 05:01N 41°18' E 002°11'4 8.8
2019-Feb-12 04:30N 41°14' E 002°09'612.8
2019-Feb-12 04:00N 41°09' E 002°03'613.0
2019-Feb-12 03:30N 41°04' E 001°58'713.1
2019-Feb-12 03:00N 40°59' E 001°52'6441.7
2019-Feb-12 03:00N 40°54' E 001°48'1 2.6 340 / 201030.027.0 13.0 16.0
2019-Feb-12 02:30N 40°54' E 001°46'7613.8
2019-Feb-11 21:00N 40°00' E 000°36'4115.6 300 / 201028.010.8 14.0 17.0
2019-Feb-11 18:22N 39°34' W 000°05'616.8
2019-Feb-11 18:00N 39°30' W 000°11'8584.4
2019-Feb-11 18:00N 39°24' W 000°18'2 3.3 150 / 141028.027.0 14.0 18.0
2019-Feb-11 17:31N 39°26' W 000°18'2 4.4
2019-Feb-11 17:00N 39°27' W 000°19'0 0.0
2019-Feb-11 16:28N 39°27' W 000°19'0 0.0
2019-Feb-11 15:58N 39°27' W 000°19'0 0.0
2019-Feb-11 15:30N 39°27' W 000°19'0 0.0
2019-Feb-11 15:00N 39°27' W 000°19'0 0.0
2019-Feb-11 14:28N 39°27' W 000°19'0 0.0
2019-Feb-11 13:57N 39°27' W 000°19'0 0.0
2019-Feb-11 13:30N 39°27' W 000°19'0 0.0
2019-Feb-11 12:59N 39°27' W 000°19'0 0.0
2019-Feb-11 12:29N 39°27' W 000°19'0 0.0
2019-Feb-11 11:59N 39°27' W 000°19'0 0.0
2019-Feb-11 11:29N 39°27' W 000°19'0 0.0
2019-Feb-11 10:59N 39°27' W 000°19'0 0.0
2019-Feb-11 10:26N 39°27' W 000°19'0 0.0
2019-Feb-11 09:59N 39°27' W 000°19'0 0.0
2019-Feb-11 09:29N 39°27' W 000°19'0 0.0
2019-Feb-11 08:59N 39°27' W 000°19'0 0.0
2019-Feb-11 08:29N 39°27' W 000°19'0 0.0
2019-Feb-11 07:59N 39°27' W 000°19'0 0.0
2019-Feb-11 07:29N 39°27' W 000°19'0 0.0
2019-Feb-11 07:00N 39°27' W 000°19'0 0.1
2019-Feb-11 06:30N 39°27' W 000°19'3 5.4
2019-Feb-11 06:00N 39°25' W 000°17'9710.8
2019-Feb-10 21:00N 37°48' W 000°12'3812.8 280 / 271022.0 5.4 16.0 17.0
2019-Feb-10 18:00N 37°18' W 000°42'3712.5 260 / 141022.027.0 18.0 18.0
2019-Feb-10 15:00N 36°54' W 001°18'76 8.5 240 / 251022.027.0 16.0 18.0
2019-Feb-10 06:00N 36°18' W 002°42'25 8.3 240 / 181023.010.8 16.0 17.0
2019-Feb-10 03:00N 36°24' W 003°12'48 2.0 250 / 151023.027.0 15.0 17.0
2019-Feb-09 03:00N 36°24' W 004°12'19 6.2 300 / 61022.510.8 15.0 18.0
2019-Feb-09 00:00N 36°06' W 004°06'25 8.3 280 / 71023.010.8 16.0 19.0
2019-Feb-08 21:00N 36°00' W 004°36'69 3.8 260 / 31023.0 5.4 15.0 18.0
2019-Feb-08 03:00N 35°48' W 006°00'4113.6 330 / 61023.027.0 15.0 19.0
2019-Feb-08 00:00N 36°00' W 006°48'25 8.3 310 / 101025.010.8 16.0 17.0
2019-Feb-07 21:00N 36°06' W 007°18'25 8.3 310 / 71024.0 5.4 15.0 18.0
2019-Feb-07 18:00N 36°12' W 007°48'6311.7 220 / 11024.027.0 18.0 19.0
2019-Feb-07 12:37N 36°31' W 009°02'6710.8
2019-Feb-07 06:23N 37°34' W 009°31'512.4
2019-Feb-07 06:00N 37°39' W 009°30'3188.8
2019-Feb-07 06:00N 37°36' W 009°30'918.7 360 / 141027.010.8 14.0 17.0
2019-Feb-07 05:30N 37°45' W 009°30'612.7
2019-Feb-07 05:00N 37°51' W 009°29'612.8
2019-Feb-07 04:30N 37°58' W 009°28'713.1
2019-Feb-07 04:00N 38°04' W 009°26'612.8
2019-Feb-07 03:30N 38°10' W 009°27'612.5
2019-Feb-07 03:01N 38°17' W 009°27'5299.6
2019-Feb-07 03:00N 38°12' W 009°24'1122.6 360 / 151026.527.0 12.5 16.0
2019-Feb-07 02:30N 38°23' W 009°26'612.7
2019-Feb-07 02:00N 38°29' W 009°26'611.8
2019-Feb-07 01:30N 38°35' W 009°24'713.2
2019-Feb-07 01:01N 38°40' W 009°19'611.2
2019-Feb-07 00:30N 38°41' W 009°11'3 6.8
2019-Feb-07 00:01N 38°43' W 009°08'0 0.0
2019-Feb-06 23:30N 38°43' W 009°08'0 0.0
2019-Feb-06 23:00N 38°43' W 009°08'0 0.0
2019-Feb-06 22:31N 38°43' W 009°08'0 0.0
2019-Feb-06 22:01N 38°43' W 009°08'0 0.0
2019-Feb-06 21:28N 38°43' W 009°08'0 0.0
2019-Feb-06 21:01N 38°43' W 009°08'0 0.0
2019-Feb-06 20:29N 38°43' W 009°08'0 0.0
2019-Feb-06 19:59N 38°43' W 009°08'0 0.0
2019-Feb-06 19:28N 38°43' W 009°08'0 0.0
2019-Feb-06 18:58N 38°43' W 009°08'0 0.0
2019-Feb-06 18:30N 38°43' W 009°08'0 0.0
2019-Feb-06 18:00N 38°43' W 009°08'0 0.0
2019-Feb-06 17:29N 38°43' W 009°08'0 0.0
2019-Feb-06 16:59N 38°43' W 009°08'0 0.0
2019-Feb-06 16:28N 38°43' W 009°08'0 0.0
2019-Feb-06 16:00N 38°43' W 009°08'0 0.0
2019-Feb-06 15:29N 38°43' W 009°08'0 0.0
2019-Feb-06 15:01N 38°43' W 009°08'0 0.0
2019-Feb-06 14:29N 38°43' W 009°08'0 0.0
2019-Feb-06 14:00N 38°43' W 009°08'0 0.0
2019-Feb-06 13:28N 38°43' W 009°08'0 0.0
2019-Feb-06 12:58N 38°43' W 009°08'0 0.0
2019-Feb-06 12:30N 38°43' W 009°08'0 0.0
2019-Feb-06 12:00N 38°43' W 009°08'0 0.0
2019-Feb-06 11:29N 38°43' W 009°08'0 0.0
2019-Feb-06 10:59N 38°43' W 009°08'0 0.0
2019-Feb-06 10:30N 38°43' W 009°08'0 0.0
2019-Feb-06 10:01N 38°43' W 009°08'0 0.0
2019-Feb-06 09:28N 38°43' W 009°08'0 0.0
2019-Feb-06 09:00N 38°43' W 009°08'0 0.5
2019-Feb-06 08:30N 38°42' W 009°08'4 9.0
2019-Feb-06 08:00N 38°41' W 009°13'612.6
2019-Feb-06 07:30N 38°39' W 009°21'816.6
2019-Feb-06 07:00N 38°31' W 009°24'918.0
2019-Feb-06 06:30N 38°22' W 009°24'918.1
2019-Feb-06 06:00N 38°13' W 009°23'918.3
2019-Feb-06 05:30N 38°03' W 009°23'918.3
2019-Feb-06 05:00N 37°54' W 009°23'918.4
2019-Feb-06 04:30N 37°45' W 009°23'918.5
2019-Feb-06 04:00N 37°36' W 009°22'918.2
2019-Feb-06 03:30N 37°27' W 009°22'918.1
2019-Feb-06 03:00N 37°18' W 009°22'3201.5
2019-Feb-06 03:00N 37°18' W 009°18'1020.2 360 / 71026.527.0 15.0 17.0
2019-Feb-06 02:30N 37°09' W 009°22'917.8
2019-Feb-06 02:00N 36°60' W 009°21'917.5
2019-Feb-06 01:30N 36°52' W 009°17'917.9
2019-Feb-06 00:59N 36°45' W 009°09'918.5
2019-Feb-06 00:29N 36°42' W 008°59'917.7
2019-Feb-06 00:00N 36°42' W 008°48'0106.7
2019-Feb-06 00:00N 36°42' W 008°48'918.3 320 / 151025.010.8 17.0 15.0
2019-Feb-05 23:29N 36°41' W 008°36'918.1
2019-Feb-05 22:59N 36°41' W 008°25'917.7
2019-Feb-05 22:28N 36°40' W 008°14'1018.0
2019-Feb-05 21:54N 36°39' W 008°01'  

Dump ship's entire track history